ソウル/仁川 の空港の天気 - METARとTAF

仁川国際空港 ( RKSI / ICN ) - 韓国 仁川広域市 (ソウル特別市近郊)
飛行場実況気象(Metar)
観測時間06/25 22:00 KST (06/25 13:00 UTC)
風向・風速北西 1m/s
視程10km以上
天気現象
なし
気温25℃
湿度44%
気圧1009hPa
METARRKSI 251300Z 31001KT CAVOK 25/12 Q1009 NOSIG
過去の天気等 Google飛行場航空写真 Wunderground天気予報

過去48時間のMETAR

飛行場予報(TAF)
発表時間: 6/25 20:00 KST (6/25 11:00 UTC)
予報対象時間: 25日21時 KST ~ 27日3時 KST
風向・風速南 4m/s
視程7000m
少しの雲 雲底高度 300m
全天の4割程度の雲 雲底高度 760m
全天の8割程度の雲 雲底高度 5490m
26日3時 KST ~ 26日4時 KST に徐々に
風向・風速南東 5m/s
視程3500m
天気現象弱い雨
少しの雲 雲底高度 300m
全天の8割程度の雲 雲底高度 610m
全天を覆う雲 雲底高度 2440m
26日10時 KST ~ 26日13時 KST に一時的に
風向・風速南 8m/s 瞬間風速 13m/s
視程2000m
天気現象
26日14時 KST ~ 26日15時 KST に徐々に
風向・風速西南西 9m/s 瞬間風速 15m/s
視程2500m
27日0時 KST ~ 27日1時 KST に徐々に
風向・風速西北西 7m/s
天気現象もや
TAF RKSI 251100Z 2512/2618 17007KT 7000 FEW010 SCT025 BKN180 TN20/2521Z TX22/2604Z
BECMG 2518/2519 14010KT 3500 -RA FEW010 BKN020 OVC080
TEMPO 2601/2604 18015G25KT 2000 RA
BECMG 2605/2606 24017G30KT 2500
BECMG 2615/2616 30013KT BR